TXKF/BDA METAR and TAF weather

Enter ICAO airport designator
Station Type Date Time Source
TXKF METAR 2019/12/06 23:55 UTC NOAA

TXKF 062355Z 02005KT 350V060 9999 VCSH SCT035 BKN060 17/11 Q1024


Station Type Date Time Source
TXKF Decoded METAR 2019/12/06 23:55 UTC NOAA

Bermuda, Bermuda (TXKF) 32-22N 064-41W
Dec 06, 2019 - 06:55 PM EST / 2019.12.06 2355 UTC
Wind: from the NNE (020 degrees) at 6 MPH (5 KT) (direction variable):0
Visibility: greater than 7 mile(s):0
Sky conditions: mostly cloudy
Weather: showers in the vicinity
Temperature: 62 F (17 C)
Dew Point: 51 F (11 C)
Relative Humidity: 67%
Pressure (altimeter): 30.24 in. Hg (1024 hPa)
ob: TXKF 062355Z 02005KT 350V060 9999 VCSH SCT035 BKN060 17/11 Q1024
cycle: 0

Station Type Date Time Source
TXKF TAF 2019/12/06 18:37 UTC NOAA

TAF TXKF 061730Z 0618/0718 03007KT 9999 SCT050

Example: see airport list